sensor_id;sensor_type;location;lat;lon;timestamp;temperature;humidity
17080;DHT22;8655;57.106;-2.088;2023-11-19T00:02:21;17.50;58.90
17080;DHT22;8655;57.106;-2.088;2023-11-19T00:04:47;17.50;58.90
17080;DHT22;8655;57.106;-2.088;2023-11-19T00:07:13;17.50;58.90
17080;DHT22;8655;57.106;-2.088;2023-11-19T00:09:40;17.50;58.90
17080;DHT22;8655;57.106;-2.088;2023-11-19T00:12:06;17.50;58.90
17080;DHT22;8655;57.106;-2.088;2023-11-19T00:14:33;17.50;58.90
17080;DHT22;8655;57.106;-2.088;2023-11-19T00:16:58;17.50;58.90
17080;DHT22;8655;57.106;-2.088;2023-11-19T00:19:24;17.50;58.90
17080;DHT22;8655;57.106;-2.088;2023-11-19T00:21:50;17.50;58.90
17080;DHT22;8655;57.106;-2.088;2023-11-19T00:24:16;17.50;58.90
17080;DHT22;8655;57.106;-2.088;2023-11-19T00:26:43;17.50;58.90
17080;DHT22;8655;57.106;-2.088;2023-11-19T00:29:08;17.50;58.90
17080;DHT22;8655;57.106;-2.088;2023-11-19T00:31:34;17.50;58.90
17080;DHT22;8655;57.106;-2.088;2023-11-19T00:34:00;17.50;58.90
17080;DHT22;8655;57.106;-2.088;2023-11-19T00:36:27;17.50;58.90
17080;DHT22;8655;57.106;-2.088;2023-11-19T00:38:53;17.50;58.90
17080;DHT22;8655;57.106;-2.088;2023-11-19T00:41:19;17.50;58.90
17080;DHT22;8655;57.106;-2.088;2023-11-19T00:43:45;17.40;58.80
17080;DHT22;8655;57.106;-2.088;2023-11-19T00:46:11;17.40;58.80
17080;DHT22;8655;57.106;-2.088;2023-11-19T00:48:37;17.40;58.80
17080;DHT22;8655;57.106;-2.088;2023-11-19T00:51:03;17.40;58.80
17080;DHT22;8655;57.106;-2.088;2023-11-19T00:53:31;17.40;58.80
17080;DHT22;8655;57.106;-2.088;2023-11-19T00:55:57;17.40;58.80
17080;DHT22;8655;57.106;-2.088;2023-11-19T00:58:24;17.40;58.80
17080;DHT22;8655;57.106;-2.088;2023-11-19T01:00:50;17.40;58.80
17080;DHT22;8655;57.106;-2.088;2023-11-19T01:03:15;17.40;58.80
17080;DHT22;8655;57.106;-2.088;2023-11-19T01:05:41;17.40;58.80
17080;DHT22;8655;57.106;-2.088;2023-11-19T01:08:08;17.40;58.80
17080;DHT22;8655;57.106;-2.088;2023-11-19T01:10:36;17.40;58.80
17080;DHT22;8655;57.106;-2.088;2023-11-19T01:13:02;17.40;58.80
17080;DHT22;8655;57.106;-2.088;2023-11-19T01:15:31;17.40;58.80
17080;DHT22;8655;57.106;-2.088;2023-11-19T01:17:57;17.40;58.80
17080;DHT22;8655;57.106;-2.088;2023-11-19T01:20:23;17.40;58.80
17080;DHT22;8655;57.106;-2.088;2023-11-19T01:22:49;17.40;58.80
17080;DHT22;8655;57.106;-2.088;2023-11-19T01:25:15;17.40;58.80
17080;DHT22;8655;57.106;-2.088;2023-11-19T01:27:41;17.40;58.80
17080;DHT22;8655;57.106;-2.088;2023-11-19T01:30:06;17.40;58.80
17080;DHT22;8655;57.106;-2.088;2023-11-19T01:32:38;17.40;58.80
17080;DHT22;8655;57.106;-2.088;2023-11-19T01:35:04;17.40;58.80
17080;DHT22;8655;57.106;-2.088;2023-11-19T01:37:30;17.40;58.80
17080;DHT22;8655;57.106;-2.088;2023-11-19T01:39:57;17.40;58.80
17080;DHT22;8655;57.106;-2.088;2023-11-19T01:42:23;17.40;58.80
17080;DHT22;8655;57.106;-2.088;2023-11-19T01:44:58;17.40;58.80
17080;DHT22;8655;57.106;-2.088;2023-11-19T01:47:25;17.40;58.80
17080;DHT22;8655;57.106;-2.088;2023-11-19T01:49:51;17.30;58.70
17080;DHT22;8655;57.106;-2.088;2023-11-19T01:52:17;17.30;58.70
17080;DHT22;8655;57.106;-2.088;2023-11-19T01:54:43;17.30;58.70
17080;DHT22;8655;57.106;-2.088;2023-11-19T01:57:10;17.30;58.70
17080;DHT22;8655;57.106;-2.088;2023-11-19T01:59:36;17.30;58.70
17080;DHT22;8655;57.106;-2.088;2023-11-19T02:02:04;17.30;58.70
17080;DHT22;8655;57.106;-2.088;2023-11-19T02:04:31;17.30;58.70
17080;DHT22;8655;57.106;-2.088;2023-11-19T02:06:58;17.30;58.70
17080;DHT22;8655;57.106;-2.088;2023-11-19T02:09:24;17.30;58.70
17080;DHT22;8655;57.106;-2.088;2023-11-19T02:11:50;17.30;58.70
17080;DHT22;8655;57.106;-2.088;2023-11-19T02:14:17;17.30;58.70
17080;DHT22;8655;57.106;-2.088;2023-11-19T02:16:43;17.30;58.80
17080;DHT22;8655;57.106;-2.088;2023-11-19T02:19:09;17.30;58.70
17080;DHT22;8655;57.106;-2.088;2023-11-19T02:21:36;17.30;58.70
17080;DHT22;8655;57.106;-2.088;2023-11-19T02:24:06;17.30;58.70
17080;DHT22;8655;57.106;-2.088;2023-11-19T02:29:16;17.30;58.80
17080;DHT22;8655;57.106;-2.088;2023-11-19T02:31:42;17.30;58.80
17080;DHT22;8655;57.106;-2.088;2023-11-19T02:34:10;17.30;59.30
17080;DHT22;8655;57.106;-2.088;2023-11-19T02:36:37;17.30;58.80
17080;DHT22;8655;57.106;-2.088;2023-11-19T02:39:03;17.30;58.70
17080;DHT22;8655;57.106;-2.088;2023-11-19T02:41:29;17.30;58.80
17080;DHT22;8655;57.106;-2.088;2023-11-19T02:43:55;17.30;58.80
17080;DHT22;8655;57.106;-2.088;2023-11-19T02:46:21;17.30;58.80
17080;DHT22;8655;57.106;-2.088;2023-11-19T02:48:46;17.20;58.70
17080;DHT22;8655;57.106;-2.088;2023-11-19T02:53:47;17.20;58.70
17080;DHT22;8655;57.106;-2.088;2023-11-19T02:56:14;17.20;58.70
17080;DHT22;8655;57.106;-2.088;2023-11-19T02:58:51;17.20;58.70
17080;DHT22;8655;57.106;-2.088;2023-11-19T03:01:26;17.20;58.70
17080;DHT22;8655;57.106;-2.088;2023-11-19T03:04:00;17.30;58.80
17080;DHT22;8655;57.106;-2.088;2023-11-19T03:06:27;17.20;58.70
17080;DHT22;8655;57.106;-2.088;2023-11-19T03:08:54;17.20;58.70
17080;DHT22;8655;57.106;-2.088;2023-11-19T03:11:20;17.20;58.70
17080;DHT22;8655;57.106;-2.088;2023-11-19T03:13:45;17.20;58.70
17080;DHT22;8655;57.106;-2.088;2023-11-19T03:16:12;17.20;58.70
17080;DHT22;8655;57.106;-2.088;2023-11-19T03:18:38;17.20;58.70
17080;DHT22;8655;57.106;-2.088;2023-11-19T03:21:06;17.20;58.70
17080;DHT22;8655;57.106;-2.088;2023-11-19T03:23:33;17.20;58.70
17080;DHT22;8655;57.106;-2.088;2023-11-19T03:25:59;17.20;58.70
17080;DHT22;8655;57.106;-2.088;2023-11-19T03:28:27;17.20;59.30
17080;DHT22;8655;57.106;-2.088;2023-11-19T03:30:53;17.20;58.70
17080;DHT22;8655;57.106;-2.088;2023-11-19T03:33:19;17.20;58.70
17080;DHT22;8655;57.106;-2.088;2023-11-19T03:35:44;17.20;58.70
17080;DHT22;8655;57.106;-2.088;2023-11-19T03:38:11;17.20;58.70
17080;DHT22;8655;57.106;-2.088;2023-11-19T03:40:37;17.20;58.70
17080;DHT22;8655;57.106;-2.088;2023-11-19T03:43:03;17.20;58.70
17080;DHT22;8655;57.106;-2.088;2023-11-19T03:45:29;17.20;58.70
17080;DHT22;8655;57.106;-2.088;2023-11-19T03:47:55;17.20;58.70
17080;DHT22;8655;57.106;-2.088;2023-11-19T03:50:21;17.20;58.70
17080;DHT22;8655;57.106;-2.088;2023-11-19T03:52:47;17.20;58.80
17080;DHT22;8655;57.106;-2.088;2023-11-19T03:55:13;17.20;58.80
17080;DHT22;8655;57.106;-2.088;2023-11-19T03:57:39;17.10;58.70
17080;DHT22;8655;57.106;-2.088;2023-11-19T04:00:05;17.20;58.80
17080;DHT22;8655;57.106;-2.088;2023-11-19T04:02:36;17.10;58.70
17080;DHT22;8655;57.106;-2.088;2023-11-19T04:05:02;17.10;58.70
17080;DHT22;8655;57.106;-2.088;2023-11-19T04:07:29;17.10;58.70
17080;DHT22;8655;57.106;-2.088;2023-11-19T04:09:55;17.10;58.70
17080;DHT22;8655;57.106;-2.088;2023-11-19T04:12:20;17.10;58.70
17080;DHT22;8655;57.106;-2.088;2023-11-19T04:14:47;17.10;58.70
17080;DHT22;8655;57.106;-2.088;2023-11-19T04:17:13;17.10;58.70
17080;DHT22;8655;57.106;-2.088;2023-11-19T04:19:38;17.10;58.70
17080;DHT22;8655;57.106;-2.088;2023-11-19T04:22:07;17.10;58.70
17080;DHT22;8655;57.106;-2.088;2023-11-19T04:24:33;17.10;58.70
17080;DHT22;8655;57.106;-2.088;2023-11-19T04:26:59;17.10;58.70
17080;DHT22;8655;57.106;-2.088;2023-11-19T04:29:25;17.10;58.70
17080;DHT22;8655;57.106;-2.088;2023-11-19T04:31:50;17.10;58.70
17080;DHT22;8655;57.106;-2.088;2023-11-19T04:34:16;17.10;58.70
17080;DHT22;8655;57.106;-2.088;2023-11-19T04:36:42;17.10;58.70
17080;DHT22;8655;57.106;-2.088;2023-11-19T04:39:09;17.10;58.70
17080;DHT22;8655;57.106;-2.088;2023-11-19T04:41:46;17.10;58.70
17080;DHT22;8655;57.106;-2.088;2023-11-19T04:44:12;17.10;58.80
17080;DHT22;8655;57.106;-2.088;2023-11-19T04:46:38;17.10;58.70
17080;DHT22;8655;57.106;-2.088;2023-11-19T04:49:03;17.10;58.70
17080;DHT22;8655;57.106;-2.088;2023-11-19T04:51:30;17.10;58.70
17080;DHT22;8655;57.106;-2.088;2023-11-19T04:53:55;17.10;58.70
17080;DHT22;8655;57.106;-2.088;2023-11-19T04:56:21;17.10;58.70
17080;DHT22;8655;57.106;-2.088;2023-11-19T04:58:48;17.10;58.70
17080;DHT22;8655;57.106;-2.088;2023-11-19T05:01:14;17.10;58.70
17080;DHT22;8655;57.106;-2.088;2023-11-19T05:03:43;17.10;58.80
17080;DHT22;8655;57.106;-2.088;2023-11-19T05:06:09;17.10;58.80
17080;DHT22;8655;57.106;-2.088;2023-11-19T05:08:35;17.10;58.80
17080;DHT22;8655;57.106;-2.088;2023-11-19T05:11:01;17.10;58.80
17080;DHT22;8655;57.106;-2.088;2023-11-19T05:13:27;17.10;58.80
17080;DHT22;8655;57.106;-2.088;2023-11-19T05:15:52;17.00;58.70
17080;DHT22;8655;57.106;-2.088;2023-11-19T05:18:18;17.10;58.80
17080;DHT22;8655;57.106;-2.088;2023-11-19T05:20:45;17.00;58.70
17080;DHT22;8655;57.106;-2.088;2023-11-19T05:23:11;17.10;58.80
17080;DHT22;8655;57.106;-2.088;2023-11-19T05:25:37;17.00;58.70
17080;DHT22;8655;57.106;-2.088;2023-11-19T05:28:02;17.10;58.80
17080;DHT22;8655;57.106;-2.088;2023-11-19T05:30:28;17.00;58.70
17080;DHT22;8655;57.106;-2.088;2023-11-19T05:32:54;17.00;58.70
17080;DHT22;8655;57.106;-2.088;2023-11-19T05:35:19;17.00;58.70
17080;DHT22;8655;57.106;-2.088;2023-11-19T05:37:45;17.00;58.80
17080;DHT22;8655;57.106;-2.088;2023-11-19T05:40:10;17.00;58.80
17080;DHT22;8655;57.106;-2.088;2023-11-19T05:42:46;17.00;58.80
17080;DHT22;8655;57.106;-2.088;2023-11-19T05:45:13;17.00;58.80
17080;DHT22;8655;57.106;-2.088;2023-11-19T05:47:38;17.00;58.80
17080;DHT22;8655;57.106;-2.088;2023-11-19T05:50:04;17.00;58.90
17080;DHT22;8655;57.106;-2.088;2023-11-19T05:52:31;17.00;58.80
17080;DHT22;8655;57.106;-2.088;2023-11-19T05:55:02;17.00;58.80
17080;DHT22;8655;57.106;-2.088;2023-11-19T05:57:38;17.00;58.80
17080;DHT22;8655;57.106;-2.088;2023-11-19T06:00:05;17.00;58.80
17080;DHT22;8655;57.106;-2.088;2023-11-19T06:02:33;17.00;58.80
17080;DHT22;8655;57.106;-2.088;2023-11-19T06:04:58;17.00;58.80
17080;DHT22;8655;57.106;-2.088;2023-11-19T06:07:24;17.00;58.80
17080;DHT22;8655;57.106;-2.088;2023-11-19T06:09:50;17.00;58.80
17080;DHT22;8655;57.106;-2.088;2023-11-19T06:12:16;17.00;58.80
17080;DHT22;8655;57.106;-2.088;2023-11-19T06:14:41;17.00;58.80
17080;DHT22;8655;57.106;-2.088;2023-11-19T06:17:07;17.00;58.80
17080;DHT22;8655;57.106;-2.088;2023-11-19T06:19:34;17.00;58.80
17080;DHT22;8655;57.106;-2.088;2023-11-19T06:21:59;17.00;58.80
17080;DHT22;8655;57.106;-2.088;2023-11-19T06:24:25;17.10;58.90
17080;DHT22;8655;57.106;-2.088;2023-11-19T06:26:51;17.00;58.90
17080;DHT22;8655;57.106;-2.088;2023-11-19T06:29:16;17.00;58.90
17080;DHT22;8655;57.106;-2.088;2023-11-19T06:31:45;17.00;58.90
17080;DHT22;8655;57.106;-2.088;2023-11-19T06:34:11;17.00;58.90
17080;DHT22;8655;57.106;-2.088;2023-11-19T06:36:36;17.00;59.00
17080;DHT22;8655;57.106;-2.088;2023-11-19T06:39:03;17.00;59.00
17080;DHT22;8655;57.106;-2.088;2023-11-19T06:41:29;16.90;59.00
17080;DHT22;8655;57.106;-2.088;2023-11-19T06:43:55;17.00;59.10
17080;DHT22;8655;57.106;-2.088;2023-11-19T06:46:21;17.00;59.20
17080;DHT22;8655;57.106;-2.088;2023-11-19T06:48:46;17.00;59.20
17080;DHT22;8655;57.106;-2.088;2023-11-19T06:51:12;17.10;59.40
17080;DHT22;8655;57.106;-2.088;2023-11-19T06:53:38;17.10;59.40
17080;DHT22;8655;57.106;-2.088;2023-11-19T06:56:18;17.10;59.40
17080;DHT22;8655;57.106;-2.088;2023-11-19T06:58:44;17.10;59.50
17080;DHT22;8655;57.106;-2.088;2023-11-19T07:01:10;17.20;59.60
17080;DHT22;8655;57.106;-2.088;2023-11-19T07:03:36;17.20;59.70
17080;DHT22;8655;57.106;-2.088;2023-11-19T07:06:01;17.20;59.70
17080;DHT22;8655;57.106;-2.088;2023-11-19T07:08:29;17.30;59.90
17080;DHT22;8655;57.106;-2.088;2023-11-19T07:10:54;17.30;59.90
17080;DHT22;8655;57.106;-2.088;2023-11-19T07:13:20;17.40;60.00
17080;DHT22;8655;57.106;-2.088;2023-11-19T07:15:46;17.40;60.10
17080;DHT22;8655;57.106;-2.088;2023-11-19T07:18:12;17.40;60.10
17080;DHT22;8655;57.106;-2.088;2023-11-19T07:20:37;17.50;60.30
17080;DHT22;8655;57.106;-2.088;2023-11-19T07:23:04;17.50;60.30
17080;DHT22;8655;57.106;-2.088;2023-11-19T07:25:29;17.50;60.30
17080;DHT22;8655;57.106;-2.088;2023-11-19T07:27:55;17.50;60.40
17080;DHT22;8655;57.106;-2.088;2023-11-19T07:30:22;17.60;60.50
17080;DHT22;8655;57.106;-2.088;2023-11-19T07:32:47;17.60;60.50
17080;DHT22;8655;57.106;-2.088;2023-11-19T07:35:14;17.60;60.60
17080;DHT22;8655;57.106;-2.088;2023-11-19T07:37:41;17.70;60.70
17080;DHT22;8655;57.106;-2.088;2023-11-19T07:40:08;17.70;60.70
17080;DHT22;8655;57.106;-2.088;2023-11-19T07:42:33;17.70;60.70
17080;DHT22;8655;57.106;-2.088;2023-11-19T07:44:59;17.80;60.80
17080;DHT22;8655;57.106;-2.088;2023-11-19T07:47:25;17.80;60.90
17080;DHT22;8655;57.106;-2.088;2023-11-19T07:49:51;17.80;60.90
17080;DHT22;8655;57.106;-2.088;2023-11-19T07:52:16;17.80;60.90
17080;DHT22;8655;57.106;-2.088;2023-11-19T07:54:42;17.80;60.90
17080;DHT22;8655;57.106;-2.088;2023-11-19T07:57:08;17.80;60.90
17080;DHT22;8655;57.106;-2.088;2023-11-19T07:59:33;17.90;61.00
17080;DHT22;8655;57.106;-2.088;2023-11-19T08:01:59;17.90;61.00
17080;DHT22;8655;57.106;-2.088;2023-11-19T08:04:24;17.90;61.00
17080;DHT22;8655;57.106;-2.088;2023-11-19T08:06:50;17.90;61.00
17080;DHT22;8655;57.106;-2.088;2023-11-19T08:09:16;17.90;61.00
17080;DHT22;8655;57.106;-2.088;2023-11-19T08:11:43;17.90;61.00
17080;DHT22;8655;57.106;-2.088;2023-11-19T08:14:09;17.90;61.00
17080;DHT22;8655;57.106;-2.088;2023-11-19T08:16:35;17.90;61.00
17080;DHT22;8655;57.106;-2.088;2023-11-19T08:19:02;17.90;61.00
17080;DHT22;8655;57.106;-2.088;2023-11-19T08:21:28;17.90;61.00
17080;DHT22;8655;57.106;-2.088;2023-11-19T08:23:54;17.90;61.00
17080;DHT22;8655;57.106;-2.088;2023-11-19T08:26:20;17.90;61.00
17080;DHT22;8655;57.106;-2.088;2023-11-19T08:28:45;17.90;60.90
17080;DHT22;8655;57.106;-2.088;2023-11-19T08:31:11;17.90;60.90
17080;DHT22;8655;57.106;-2.088;2023-11-19T08:33:37;17.90;60.90
17080;DHT22;8655;57.106;-2.088;2023-11-19T08:36:03;17.90;60.90
17080;DHT22;8655;57.106;-2.088;2023-11-19T08:38:29;17.90;60.90
17080;DHT22;8655;57.106;-2.088;2023-11-19T08:40:55;17.90;60.80
17080;DHT22;8655;57.106;-2.088;2023-11-19T08:43:25;17.90;60.80
17080;DHT22;8655;57.106;-2.088;2023-11-19T08:45:51;17.90;60.80
17080;DHT22;8655;57.106;-2.088;2023-11-19T08:48:17;17.90;60.80
17080;DHT22;8655;57.106;-2.088;2023-11-19T08:50:42;17.90;60.80
17080;DHT22;8655;57.106;-2.088;2023-11-19T08:53:08;17.90;60.80
17080;DHT22;8655;57.106;-2.088;2023-11-19T08:55:33;17.90;60.80
17080;DHT22;8655;57.106;-2.088;2023-11-19T08:57:59;17.90;60.80
17080;DHT22;8655;57.106;-2.088;2023-11-19T09:00:25;17.90;60.80
17080;DHT22;8655;57.106;-2.088;2023-11-19T09:02:50;17.90;60.80
17080;DHT22;8655;57.106;-2.088;2023-11-19T09:05:16;17.80;60.60
17080;DHT22;8655;57.106;-2.088;2023-11-19T09:07:42;17.80;60.60
17080;DHT22;8655;57.106;-2.088;2023-11-19T09:10:08;17.80;60.60
17080;DHT22;8655;57.106;-2.088;2023-11-19T09:12:34;17.80;60.60
17080;DHT22;8655;57.106;-2.088;2023-11-19T09:15:00;17.80;60.60
17080;DHT22;8655;57.106;-2.088;2023-11-19T09:17:26;17.80;60.60
17080;DHT22;8655;57.106;-2.088;2023-11-19T09:19:51;17.80;60.60
17080;DHT22;8655;57.106;-2.088;2023-11-19T09:22:17;17.80;60.60
17080;DHT22;8655;57.106;-2.088;2023-11-19T09:24:43;17.80;60.60
17080;DHT22;8655;57.106;-2.088;2023-11-19T09:27:10;17.80;60.50
17080;DHT22;8655;57.106;-2.088;2023-11-19T09:29:36;17.80;60.50
17080;DHT22;8655;57.106;-2.088;2023-11-19T09:32:01;17.80;60.60
17080;DHT22;8655;57.106;-2.088;2023-11-19T09:34:27;17.80;60.50
17080;DHT22;8655;57.106;-2.088;2023-11-19T09:36:53;17.80;60.50
17080;DHT22;8655;57.106;-2.088;2023-11-19T09:39:19;17.80;60.50
17080;DHT22;8655;57.106;-2.088;2023-11-19T09:41:46;17.80;60.50
17080;DHT22;8655;57.106;-2.088;2023-11-19T09:44:12;17.80;60.50
17080;DHT22;8655;57.106;-2.088;2023-11-19T09:46:41;17.70;60.40
17080;DHT22;8655;57.106;-2.088;2023-11-19T09:49:08;17.70;60.40
17080;DHT22;8655;57.106;-2.088;2023-11-19T09:51:36;17.70;60.40
17080;DHT22;8655;57.106;-2.088;2023-11-19T09:54:02;17.70;60.40
17080;DHT22;8655;57.106;-2.088;2023-11-19T09:56:30;17.70;60.30
17080;DHT22;8655;57.106;-2.088;2023-11-19T09:58:57;17.70;60.30
17080;DHT22;8655;57.106;-2.088;2023-11-19T10:01:23;17.70;60.30
17080;DHT22;8655;57.106;-2.088;2023-11-19T10:03:50;17.70;60.30
17080;DHT22;8655;57.106;-2.088;2023-11-19T10:06:17;17.70;60.30
17080;DHT22;8655;57.106;-2.088;2023-11-19T10:08:44;17.70;60.30
17080;DHT22;8655;57.106;-2.088;2023-11-19T10:11:10;17.70;60.30
17080;DHT22;8655;57.106;-2.088;2023-11-19T10:13:38;17.70;60.30
17080;DHT22;8655;57.106;-2.088;2023-11-19T10:16:08;17.60;60.20
17080;DHT22;8655;57.106;-2.088;2023-11-19T10:18:34;17.60;60.20
17080;DHT22;8655;57.106;-2.088;2023-11-19T10:21:06;17.70;60.30
17080;DHT22;8655;57.106;-2.088;2023-11-19T10:23:48;17.60;60.20
17080;DHT22;8655;57.106;-2.088;2023-11-19T10:26:14;17.60;60.20
17080;DHT22;8655;57.106;-2.088;2023-11-19T10:28:40;17.60;60.20
17080;DHT22;8655;57.106;-2.088;2023-11-19T10:31:09;17.60;60.20
17080;DHT22;8655;57.106;-2.088;2023-11-19T10:33:35;17.60;60.20
17080;DHT22;8655;57.106;-2.088;2023-11-19T10:36:01;17.60;60.10
17080;DHT22;8655;57.106;-2.088;2023-11-19T10:38:26;17.60;60.10
17080;DHT22;8655;57.106;-2.088;2023-11-19T10:40:53;17.60;60.10
17080;DHT22;8655;57.106;-2.088;2023-11-19T10:43:20;17.60;60.20
17080;DHT22;8655;57.106;-2.088;2023-11-19T10:45:50;17.60;60.10
17080;DHT22;8655;57.106;-2.088;2023-11-19T10:48:16;17.60;60.10
17080;DHT22;8655;57.106;-2.088;2023-11-19T10:50:43;17.60;60.10
17080;DHT22;8655;57.106;-2.088;2023-11-19T10:53:11;17.60;60.10
17080;DHT22;8655;57.106;-2.088;2023-11-19T10:55:39;17.60;60.10
17080;DHT22;8655;57.106;-2.088;2023-11-19T10:58:08;17.60;60.10
17080;DHT22;8655;57.106;-2.088;2023-11-19T11:00:46;17.60;60.10
17080;DHT22;8655;57.106;-2.088;2023-11-19T11:03:24;17.60;60.10
17080;DHT22;8655;57.106;-2.088;2023-11-19T11:05:51;17.60;60.10
17080;DHT22;8655;57.106;-2.088;2023-11-19T11:08:18;17.50;60.00
17080;DHT22;8655;57.106;-2.088;2023-11-19T11:10:56;17.50;60.00
17080;DHT22;8655;57.106;-2.088;2023-11-19T11:13:24;17.50;60.00
17080;DHT22;8655;57.106;-2.088;2023-11-19T11:15:50;17.50;60.00
17080;DHT22;8655;57.106;-2.088;2023-11-19T11:18:17;17.50;60.00
17080;DHT22;8655;57.106;-2.088;2023-11-19T11:20:46;17.60;60.10
17080;DHT22;8655;57.106;-2.088;2023-11-19T11:23:28;17.50;60.00
17080;DHT22;8655;57.106;-2.088;2023-11-19T11:39:40;17.50;60.00
17080;DHT22;8655;57.106;-2.088;2023-11-19T11:45:06;17.50;60.00
17080;DHT22;8655;57.106;-2.088;2023-11-19T11:50:13;17.50;60.00
17080;DHT22;8655;57.106;-2.088;2023-11-19T11:55:37;17.40;59.90
17080;DHT22;8655;57.106;-2.088;2023-11-19T11:58:05;17.50;60.00
17080;DHT22;8655;57.106;-2.088;2023-11-19T12:00:38;17.40;59.90
17080;DHT22;8655;57.106;-2.088;2023-11-19T12:03:06;17.40;59.90
17080;DHT22;8655;57.106;-2.088;2023-11-19T12:05:32;17.40;59.90
17080;DHT22;8655;57.106;-2.088;2023-11-19T12:08:06;17.40;59.90
17080;DHT22;8655;57.106;-2.088;2023-11-19T12:10:50;17.50;60.70
17080;DHT22;8655;57.106;-2.088;2023-11-19T12:13:18;17.40;59.90
17080;DHT22;8655;57.106;-2.088;2023-11-19T12:18:30;17.40;59.90
17080;DHT22;8655;57.106;-2.088;2023-11-19T12:20:58;17.40;60.60
17080;DHT22;8655;57.106;-2.088;2023-11-19T12:23:29;17.40;59.90
17080;DHT22;8655;57.106;-2.088;2023-11-19T12:25:55;17.40;59.90
17080;DHT22;8655;57.106;-2.088;2023-11-19T12:28:21;17.40;59.90
17080;DHT22;8655;57.106;-2.088;2023-11-19T12:30:46;17.40;59.90
17080;DHT22;8655;57.106;-2.088;2023-11-19T12:33:13;17.40;59.90
17080;DHT22;8655;57.106;-2.088;2023-11-19T12:35:44;17.40;59.90
17080;DHT22;8655;57.106;-2.088;2023-11-19T12:38:20;17.40;59.90
17080;DHT22;8655;57.106;-2.088;2023-11-19T12:40:46;17.40;59.90
17080;DHT22;8655;57.106;-2.088;2023-11-19T12:43:21;17.40;59.90
17080;DHT22;8655;57.106;-2.088;2023-11-19T12:45:50;17.40;59.90
17080;DHT22;8655;57.106;-2.088;2023-11-19T12:48:15;17.40;59.90
17080;DHT22;8655;57.106;-2.088;2023-11-19T12:50:54;17.40;59.90
17080;DHT22;8655;57.106;-2.088;2023-11-19T12:53:26;17.40;59.90
17080;DHT22;8655;57.106;-2.088;2023-11-19T12:55:53;17.40;59.90
17080;DHT22;8655;57.106;-2.088;2023-11-19T12:58:29;17.40;59.90
17080;DHT22;8655;57.106;-2.088;2023-11-19T13:01:06;17.40;59.90
17080;DHT22;8655;57.106;-2.088;2023-11-19T13:03:34;17.40;59.90
17080;DHT22;8655;57.106;-2.088;2023-11-19T13:08:36;17.40;59.90
17080;DHT22;8655;57.106;-2.088;2023-11-19T13:11:03;17.40;59.90
17080;DHT22;8655;57.106;-2.088;2023-11-19T13:13:28;17.40;59.90
17080;DHT22;8655;57.106;-2.088;2023-11-19T13:16:02;17.40;60.60
17080;DHT22;8655;57.106;-2.088;2023-11-19T13:18:28;17.40;59.90
17080;DHT22;8655;57.106;-2.088;2023-11-19T13:20:54;17.40;59.90
17080;DHT22;8655;57.106;-2.088;2023-11-19T13:23:22;17.40;59.90
17080;DHT22;8655;57.106;-2.088;2023-11-19T13:25:48;17.40;59.90
17080;DHT22;8655;57.106;-2.088;2023-11-19T13:28:14;17.40;59.90
17080;DHT22;8655;57.106;-2.088;2023-11-19T13:30:40;17.40;59.90
17080;DHT22;8655;57.106;-2.088;2023-11-19T13:33:05;17.40;59.90
17080;DHT22;8655;57.106;-2.088;2023-11-19T13:35:31;17.40;59.90
17080;DHT22;8655;57.106;-2.088;2023-11-19T13:37:57;17.40;59.90
17080;DHT22;8655;57.106;-2.088;2023-11-19T13:40:23;17.40;59.90
17080;DHT22;8655;57.106;-2.088;2023-11-19T13:42:50;17.40;59.90
17080;DHT22;8655;57.106;-2.088;2023-11-19T13:45:16;17.40;59.90
17080;DHT22;8655;57.106;-2.088;2023-11-19T13:47:44;17.40;59.90
17080;DHT22;8655;57.106;-2.088;2023-11-19T13:50:15;17.40;59.90
17080;DHT22;8655;57.106;-2.088;2023-11-19T13:52:42;17.40;60.00
17080;DHT22;8655;57.106;-2.088;2023-11-19T13:55:11;17.40;59.90
17080;DHT22;8655;57.106;-2.088;2023-11-19T13:57:39;17.40;59.90
17080;DHT22;8655;57.106;-2.088;2023-11-19T14:00:07;17.40;59.90
17080;DHT22;8655;57.106;-2.088;2023-11-19T14:02:36;17.40;59.90
17080;DHT22;8655;57.106;-2.088;2023-11-19T14:05:02;17.40;59.90
17080;DHT22;8655;57.106;-2.088;2023-11-19T14:07:28;17.40;59.90
17080;DHT22;8655;57.106;-2.088;2023-11-19T14:09:54;17.40;59.90
17080;DHT22;8655;57.106;-2.088;2023-11-19T14:12:19;17.40;60.00
17080;DHT22;8655;57.106;-2.088;2023-11-19T14:14:45;17.40;60.00
17080;DHT22;8655;57.106;-2.088;2023-11-19T14:17:11;17.40;60.00
17080;DHT22;8655;57.106;-2.088;2023-11-19T14:19:37;17.40;60.00
17080;DHT22;8655;57.106;-2.088;2023-11-19T14:22:04;17.40;60.00
17080;DHT22;8655;57.106;-2.088;2023-11-19T14:24:31;17.40;60.00
17080;DHT22;8655;57.106;-2.088;2023-11-19T14:26:56;17.40;60.00
17080;DHT22;8655;57.106;-2.088;2023-11-19T14:29:24;17.40;60.00
17080;DHT22;8655;57.106;-2.088;2023-11-19T14:31:51;17.40;60.00
17080;DHT22;8655;57.106;-2.088;2023-11-19T14:34:18;17.40;60.00
17080;DHT22;8655;57.106;-2.088;2023-11-19T14:36:44;17.40;60.00
17080;DHT22;8655;57.106;-2.088;2023-11-19T14:39:10;17.40;60.00
17080;DHT22;8655;57.106;-2.088;2023-11-19T14:41:36;17.40;60.00
17080;DHT22;8655;57.106;-2.088;2023-11-19T14:44:01;17.40;60.00
17080;DHT22;8655;57.106;-2.088;2023-11-19T14:46:29;17.40;60.00
17080;DHT22;8655;57.106;-2.088;2023-11-19T14:48:54;17.40;60.00
17080;DHT22;8655;57.106;-2.088;2023-11-19T14:51:20;17.40;60.00
17080;DHT22;8655;57.106;-2.088;2023-11-19T14:53:46;17.40;60.00
17080;DHT22;8655;57.106;-2.088;2023-11-19T14:56:12;17.40;60.00
17080;DHT22;8655;57.106;-2.088;2023-11-19T14:58:41;17.40;59.90
17080;DHT22;8655;57.106;-2.088;2023-11-19T15:01:11;17.40;59.90
17080;DHT22;8655;57.106;-2.088;2023-11-19T15:03:37;17.40;60.00
17080;DHT22;8655;57.106;-2.088;2023-11-19T15:06:03;17.40;60.00
17080;DHT22;8655;57.106;-2.088;2023-11-19T15:08:28;17.40;60.00
17080;DHT22;8655;57.106;-2.088;2023-11-19T15:10:55;17.40;60.00
17080;DHT22;8655;57.106;-2.088;2023-11-19T15:13:23;17.40;60.00
17080;DHT22;8655;57.106;-2.088;2023-11-19T15:15:49;17.40;60.00
17080;DHT22;8655;57.106;-2.088;2023-11-19T15:18:15;17.40;60.00
17080;DHT22;8655;57.106;-2.088;2023-11-19T15:20:43;17.30;59.90
17080;DHT22;8655;57.106;-2.088;2023-11-19T15:23:15;17.40;60.00
17080;DHT22;8655;57.106;-2.088;2023-11-19T15:25:41;17.40;60.00
17080;DHT22;8655;57.106;-2.088;2023-11-19T15:28:07;17.40;60.00
17080;DHT22;8655;57.106;-2.088;2023-11-19T15:30:33;17.40;60.00
17080;DHT22;8655;57.106;-2.088;2023-11-19T15:32:59;17.40;60.00
17080;DHT22;8655;57.106;-2.088;2023-11-19T15:35:25;17.40;60.00
17080;DHT22;8655;57.106;-2.088;2023-11-19T15:37:51;17.40;60.00
17080;DHT22;8655;57.106;-2.088;2023-11-19T15:40:16;17.40;60.00
17080;DHT22;8655;57.106;-2.088;2023-11-19T15:42:43;17.40;60.00
17080;DHT22;8655;57.106;-2.088;2023-11-19T15:45:10;17.40;60.00
17080;DHT22;8655;57.106;-2.088;2023-11-19T15:47:37;17.40;59.90
17080;DHT22;8655;57.106;-2.088;2023-11-19T15:50:03;17.40;60.00
17080;DHT22;8655;57.106;-2.088;2023-11-19T15:52:29;17.40;60.00
17080;DHT22;8655;57.106;-2.088;2023-11-19T15:54:58;17.40;60.00
17080;DHT22;8655;57.106;-2.088;2023-11-19T15:57:23;17.40;60.00
17080;DHT22;8655;57.106;-2.088;2023-11-19T15:59:49;17.40;60.00
17080;DHT22;8655;57.106;-2.088;2023-11-19T16:02:16;17.40;60.00